ADDS METAR Data INFO
IDs: Format: Raw Decoded Include TAF

Data at: 2024 UTC 22 Apr 2018

METAR for:KUNI (Albany/Ohio Univ Arp, OH, US)
Text:KUNI 222015Z AUTO 02005KT 7SM CLR 20/M03 A3022 RMK AO2 T01991027
Temperature: 19.9°C ( 68°F)
Dewpoint: -2.7°C ( 27°F) [RH = 22%]
Pressure (altimeter):30.22 inches Hg (1023.5 mb)
Winds:from the NNE (20 degrees) at 6 MPH (5 knots; 2.6 m/s)
Visibility: 7 sm ( 11 km)
Ceiling:at least 12,000 feet AGL
Clouds:sky clear below 12,000 feet AGL
QC Flag:automated observation with no human augmentation